sensor_id;sensor_type;location;lat;lon;timestamp;temperature;humidity
45837;DHT22;31548;51.420;-0.040;2023-07-29T00:00:50;18.80;99.90
45837;DHT22;31548;51.420;-0.040;2023-07-29T00:03:17;18.80;99.90
45837;DHT22;31548;51.420;-0.040;2023-07-29T00:05:45;18.70;99.90
45837;DHT22;31548;51.420;-0.040;2023-07-29T00:08:12;18.70;99.90
45837;DHT22;31548;51.420;-0.040;2023-07-29T00:10:40;18.70;99.90
45837;DHT22;31548;51.420;-0.040;2023-07-29T00:13:07;18.70;99.90
45837;DHT22;31548;51.420;-0.040;2023-07-29T00:15:35;18.70;99.90
45837;DHT22;31548;51.420;-0.040;2023-07-29T00:18:02;18.60;99.90
45837;DHT22;31548;51.420;-0.040;2023-07-29T00:20:29;18.60;99.90
45837;DHT22;31548;51.420;-0.040;2023-07-29T00:22:57;18.60;99.90
45837;DHT22;31548;51.420;-0.040;2023-07-29T00:25:25;18.60;99.90
45837;DHT22;31548;51.420;-0.040;2023-07-29T00:27:55;18.60;99.90
45837;DHT22;31548;51.420;-0.040;2023-07-29T00:30:22;18.60;99.90
45837;DHT22;31548;51.420;-0.040;2023-07-29T00:32:50;18.50;99.90
45837;DHT22;31548;51.420;-0.040;2023-07-29T00:35:17;18.50;99.90
45837;DHT22;31548;51.420;-0.040;2023-07-29T00:37:44;18.50;99.90
45837;DHT22;31548;51.420;-0.040;2023-07-29T00:40:19;18.50;99.90
45837;DHT22;31548;51.420;-0.040;2023-07-29T00:42:48;18.50;99.90
45837;DHT22;31548;51.420;-0.040;2023-07-29T00:45:16;18.50;99.90
45837;DHT22;31548;51.420;-0.040;2023-07-29T00:47:44;18.50;99.90
45837;DHT22;31548;51.420;-0.040;2023-07-29T00:50:13;18.40;99.90
45837;DHT22;31548;51.420;-0.040;2023-07-29T00:52:41;18.30;99.90
45837;DHT22;31548;51.420;-0.040;2023-07-29T00:55:09;18.30;99.90
45837;DHT22;31548;51.420;-0.040;2023-07-29T00:57:36;18.30;99.90
45837;DHT22;31548;51.420;-0.040;2023-07-29T01:00:04;18.20;99.90
45837;DHT22;31548;51.420;-0.040;2023-07-29T01:02:32;18.20;99.90
45837;DHT22;31548;51.420;-0.040;2023-07-29T01:05:00;18.20;99.90
45837;DHT22;31548;51.420;-0.040;2023-07-29T01:07:59;18.20;99.90
45837;DHT22;31548;51.420;-0.040;2023-07-29T01:10:54;18.20;99.90
45837;DHT22;31548;51.420;-0.040;2023-07-29T01:13:41;18.30;99.90
45837;DHT22;31548;51.420;-0.040;2023-07-29T01:16:19;18.20;99.90
45837;DHT22;31548;51.420;-0.040;2023-07-29T01:18:50;18.20;99.90
45837;DHT22;31548;51.420;-0.040;2023-07-29T01:21:19;18.10;99.90
45837;DHT22;31548;51.420;-0.040;2023-07-29T01:23:52;18.20;99.90
45837;DHT22;31548;51.420;-0.040;2023-07-29T01:26:20;18.10;99.90
45837;DHT22;31548;51.420;-0.040;2023-07-29T01:28:47;18.10;99.90
45837;DHT22;31548;51.420;-0.040;2023-07-29T01:31:31;18.10;99.90
45837;DHT22;31548;51.420;-0.040;2023-07-29T01:34:15;18.10;99.90
45837;DHT22;31548;51.420;-0.040;2023-07-29T01:36:45;18.00;99.90
45837;DHT22;31548;51.420;-0.040;2023-07-29T01:39:16;18.00;99.90
45837;DHT22;31548;51.420;-0.040;2023-07-29T01:41:45;18.00;99.90
45837;DHT22;31548;51.420;-0.040;2023-07-29T01:44:13;18.00;99.90
45837;DHT22;31548;51.420;-0.040;2023-07-29T01:46:41;18.00;99.90
45837;DHT22;31548;51.420;-0.040;2023-07-29T01:49:08;18.00;99.90
45837;DHT22;31548;51.420;-0.040;2023-07-29T01:51:35;17.90;99.90
45837;DHT22;31548;51.420;-0.040;2023-07-29T01:54:03;17.90;99.90
45837;DHT22;31548;51.420;-0.040;2023-07-29T01:56:31;17.90;99.90
45837;DHT22;31548;51.420;-0.040;2023-07-29T01:58:59;17.90;99.90
45837;DHT22;31548;51.420;-0.040;2023-07-29T02:01:27;17.90;99.90
45837;DHT22;31548;51.420;-0.040;2023-07-29T02:03:55;17.80;99.90
45837;DHT22;31548;51.420;-0.040;2023-07-29T02:06:23;17.90;99.90
45837;DHT22;31548;51.420;-0.040;2023-07-29T02:08:51;17.80;99.90
45837;DHT22;31548;51.420;-0.040;2023-07-29T02:11:19;17.80;99.90
45837;DHT22;31548;51.420;-0.040;2023-07-29T02:13:55;17.70;99.90
45837;DHT22;31548;51.420;-0.040;2023-07-29T02:16:23;17.70;99.90
45837;DHT22;31548;51.420;-0.040;2023-07-29T02:18:51;17.70;99.90
45837;DHT22;31548;51.420;-0.040;2023-07-29T02:21:22;17.70;99.90
45837;DHT22;31548;51.420;-0.040;2023-07-29T02:23:49;17.70;99.90
45837;DHT22;31548;51.420;-0.040;2023-07-29T02:26:17;17.70;99.90
45837;DHT22;31548;51.420;-0.040;2023-07-29T02:28:45;17.60;99.90
45837;DHT22;31548;51.420;-0.040;2023-07-29T02:31:19;17.70;99.90
45837;DHT22;31548;51.420;-0.040;2023-07-29T02:33:47;17.70;99.90
45837;DHT22;31548;51.420;-0.040;2023-07-29T02:36:16;17.70;99.90
45837;DHT22;31548;51.420;-0.040;2023-07-29T02:38:43;17.70;99.90
45837;DHT22;31548;51.420;-0.040;2023-07-29T02:41:11;17.60;99.90
45837;DHT22;31548;51.420;-0.040;2023-07-29T02:43:41;17.60;99.90
45837;DHT22;31548;51.420;-0.040;2023-07-29T02:46:09;17.60;99.90
45837;DHT22;31548;51.420;-0.040;2023-07-29T02:48:37;17.60;99.90
45837;DHT22;31548;51.420;-0.040;2023-07-29T02:51:04;17.70;99.90
45837;DHT22;31548;51.420;-0.040;2023-07-29T02:53:32;17.60;99.90
45837;DHT22;31548;51.420;-0.040;2023-07-29T02:55:59;17.60;99.90
45837;DHT22;31548;51.420;-0.040;2023-07-29T02:58:26;17.60;99.90
45837;DHT22;31548;51.420;-0.040;2023-07-29T03:01:01;17.60;99.90
45837;DHT22;31548;51.420;-0.040;2023-07-29T03:03:30;17.60;99.90
45837;DHT22;31548;51.420;-0.040;2023-07-29T03:06:03;17.70;99.90
45837;DHT22;31548;51.420;-0.040;2023-07-29T03:08:31;17.70;99.90
45837;DHT22;31548;51.420;-0.040;2023-07-29T03:10:58;17.70;99.90
45837;DHT22;31548;51.420;-0.040;2023-07-29T03:13:26;17.70;99.90
45837;DHT22;31548;51.420;-0.040;2023-07-29T03:15:53;17.70;99.90
45837;DHT22;31548;51.420;-0.040;2023-07-29T03:18:21;17.70;99.90
45837;DHT22;31548;51.420;-0.040;2023-07-29T03:20:49;17.70;99.90
45837;DHT22;31548;51.420;-0.040;2023-07-29T03:23:16;17.70;99.90
45837;DHT22;31548;51.420;-0.040;2023-07-29T03:25:43;17.70;99.90
45837;DHT22;31548;51.420;-0.040;2023-07-29T03:28:12;17.70;99.90
45837;DHT22;31548;51.420;-0.040;2023-07-29T03:30:39;17.70;99.90
45837;DHT22;31548;51.420;-0.040;2023-07-29T03:33:07;17.70;99.90
45837;DHT22;31548;51.420;-0.040;2023-07-29T03:35:35;17.60;99.90
45837;DHT22;31548;51.420;-0.040;2023-07-29T03:38:02;17.70;99.90
45837;DHT22;31548;51.420;-0.040;2023-07-29T03:40:29;17.70;99.90
45837;DHT22;31548;51.420;-0.040;2023-07-29T03:42:56;17.70;99.90
45837;DHT22;31548;51.420;-0.040;2023-07-29T03:45:24;17.70;99.90
45837;DHT22;31548;51.420;-0.040;2023-07-29T03:47:51;17.70;99.90
45837;DHT22;31548;51.420;-0.040;2023-07-29T03:50:19;17.60;99.90
45837;DHT22;31548;51.420;-0.040;2023-07-29T03:52:46;17.60;99.90
45837;DHT22;31548;51.420;-0.040;2023-07-29T03:55:13;17.60;99.90
45837;DHT22;31548;51.420;-0.040;2023-07-29T03:57:41;17.60;99.90
45837;DHT22;31548;51.420;-0.040;2023-07-29T04:00:08;17.60;99.90
45837;DHT22;31548;51.420;-0.040;2023-07-29T04:02:46;17.60;99.90
45837;DHT22;31548;51.420;-0.040;2023-07-29T04:05:13;17.60;99.90
45837;DHT22;31548;51.420;-0.040;2023-07-29T04:07:41;17.60;99.90
45837;DHT22;31548;51.420;-0.040;2023-07-29T04:10:08;17.50;99.90
45837;DHT22;31548;51.420;-0.040;2023-07-29T04:12:36;17.50;99.90
45837;DHT22;31548;51.420;-0.040;2023-07-29T04:15:04;17.50;99.90
45837;DHT22;31548;51.420;-0.040;2023-07-29T04:17:32;17.60;99.90
45837;DHT22;31548;51.420;-0.040;2023-07-29T04:19:59;17.50;99.90
45837;DHT22;31548;51.420;-0.040;2023-07-29T04:22:32;17.50;99.90
45837;DHT22;31548;51.420;-0.040;2023-07-29T04:25:00;17.60;99.90
45837;DHT22;31548;51.420;-0.040;2023-07-29T04:27:27;17.50;99.90
45837;DHT22;31548;51.420;-0.040;2023-07-29T04:29:54;17.50;99.90
45837;DHT22;31548;51.420;-0.040;2023-07-29T04:32:22;17.50;99.90
45837;DHT22;31548;51.420;-0.040;2023-07-29T04:34:49;17.50;99.90
45837;DHT22;31548;51.420;-0.040;2023-07-29T04:37:16;17.50;99.90
45837;DHT22;31548;51.420;-0.040;2023-07-29T04:39:44;17.50;99.90
45837;DHT22;31548;51.420;-0.040;2023-07-29T04:42:11;17.50;99.90
45837;DHT22;31548;51.420;-0.040;2023-07-29T04:44:38;17.50;99.90
45837;DHT22;31548;51.420;-0.040;2023-07-29T04:47:06;17.50;99.90
45837;DHT22;31548;51.420;-0.040;2023-07-29T04:49:33;17.50;99.90
45837;DHT22;31548;51.420;-0.040;2023-07-29T04:52:00;17.50;99.90
45837;DHT22;31548;51.420;-0.040;2023-07-29T04:54:28;17.50;99.90
45837;DHT22;31548;51.420;-0.040;2023-07-29T04:56:55;17.50;99.90
45837;DHT22;31548;51.420;-0.040;2023-07-29T04:59:23;17.50;99.90
45837;DHT22;31548;51.420;-0.040;2023-07-29T05:01:51;17.50;99.90
45837;DHT22;31548;51.420;-0.040;2023-07-29T05:04:21;17.50;99.90
45837;DHT22;31548;51.420;-0.040;2023-07-29T05:06:48;17.50;99.90
45837;DHT22;31548;51.420;-0.040;2023-07-29T05:09:17;17.50;99.90
45837;DHT22;31548;51.420;-0.040;2023-07-29T05:11:45;17.50;99.90
45837;DHT22;31548;51.420;-0.040;2023-07-29T05:14:16;17.50;99.90
45837;DHT22;31548;51.420;-0.040;2023-07-29T05:16:44;17.50;99.90
45837;DHT22;31548;51.420;-0.040;2023-07-29T05:19:11;17.50;99.90
45837;DHT22;31548;51.420;-0.040;2023-07-29T05:21:39;17.50;99.90
45837;DHT22;31548;51.420;-0.040;2023-07-29T05:24:06;17.50;99.90
45837;DHT22;31548;51.420;-0.040;2023-07-29T05:26:34;17.50;99.90
45837;DHT22;31548;51.420;-0.040;2023-07-29T05:29:02;17.50;99.90
45837;DHT22;31548;51.420;-0.040;2023-07-29T05:31:31;17.40;99.90
45837;DHT22;31548;51.420;-0.040;2023-07-29T05:33:59;17.40;99.90
45837;DHT22;31548;51.420;-0.040;2023-07-29T05:36:26;17.40;99.90
45837;DHT22;31548;51.420;-0.040;2023-07-29T05:38:54;17.50;99.90
45837;DHT22;31548;51.420;-0.040;2023-07-29T05:41:21;17.50;99.90
45837;DHT22;31548;51.420;-0.040;2023-07-29T05:43:49;17.50;99.90
45837;DHT22;31548;51.420;-0.040;2023-07-29T05:46:16;17.50;99.90
45837;DHT22;31548;51.420;-0.040;2023-07-29T05:48:44;17.50;99.90
45837;DHT22;31548;51.420;-0.040;2023-07-29T05:51:11;17.50;99.90
45837;DHT22;31548;51.420;-0.040;2023-07-29T05:53:39;17.40;99.90
45837;DHT22;31548;51.420;-0.040;2023-07-29T05:56:07;17.50;99.90
45837;DHT22;31548;51.420;-0.040;2023-07-29T05:58:34;17.50;99.90
45837;DHT22;31548;51.420;-0.040;2023-07-29T06:01:01;17.50;99.90
45837;DHT22;31548;51.420;-0.040;2023-07-29T06:03:29;17.60;99.90
45837;DHT22;31548;51.420;-0.040;2023-07-29T06:05:56;17.50;99.90
45837;DHT22;31548;51.420;-0.040;2023-07-29T06:08:24;17.60;99.90
45837;DHT22;31548;51.420;-0.040;2023-07-29T06:10:51;17.60;99.90
45837;DHT22;31548;51.420;-0.040;2023-07-29T06:13:19;17.60;99.90
45837;DHT22;31548;51.420;-0.040;2023-07-29T06:15:46;17.60;99.90
45837;DHT22;31548;51.420;-0.040;2023-07-29T06:18:14;17.70;99.90
45837;DHT22;31548;51.420;-0.040;2023-07-29T06:20:41;17.70;99.90
45837;DHT22;31548;51.420;-0.040;2023-07-29T06:23:09;17.60;99.90
45837;DHT22;31548;51.420;-0.040;2023-07-29T06:25:36;17.60;99.90
45837;DHT22;31548;51.420;-0.040;2023-07-29T06:28:03;17.60;99.90
45837;DHT22;31548;51.420;-0.040;2023-07-29T06:30:32;17.60;99.90
45837;DHT22;31548;51.420;-0.040;2023-07-29T06:32:59;17.60;99.90
45837;DHT22;31548;51.420;-0.040;2023-07-29T06:35:27;17.60;99.90
45837;DHT22;31548;51.420;-0.040;2023-07-29T06:37:54;17.70;99.90
45837;DHT22;31548;51.420;-0.040;2023-07-29T06:40:22;17.70;99.90
45837;DHT22;31548;51.420;-0.040;2023-07-29T06:42:49;17.80;99.90
45837;DHT22;31548;51.420;-0.040;2023-07-29T06:45:16;17.80;99.90
45837;DHT22;31548;51.420;-0.040;2023-07-29T06:47:44;17.90;99.90
45837;DHT22;31548;51.420;-0.040;2023-07-29T06:50:12;17.90;99.90
45837;DHT22;31548;51.420;-0.040;2023-07-29T06:52:39;17.90;99.90
45837;DHT22;31548;51.420;-0.040;2023-07-29T06:55:07;17.90;99.90
45837;DHT22;31548;51.420;-0.040;2023-07-29T06:57:35;17.90;99.90
45837;DHT22;31548;51.420;-0.040;2023-07-29T07:00:03;18.10;99.90
45837;DHT22;31548;51.420;-0.040;2023-07-29T07:02:31;18.10;99.90
45837;DHT22;31548;51.420;-0.040;2023-07-29T07:04:59;18.20;99.90
45837;DHT22;31548;51.420;-0.040;2023-07-29T07:07:26;18.20;99.90
45837;DHT22;31548;51.420;-0.040;2023-07-29T07:09:54;18.30;99.90
45837;DHT22;31548;51.420;-0.040;2023-07-29T07:12:21;18.40;99.90
45837;DHT22;31548;51.420;-0.040;2023-07-29T07:14:48;18.60;99.90
45837;DHT22;31548;51.420;-0.040;2023-07-29T07:17:16;18.60;99.90
45837;DHT22;31548;51.420;-0.040;2023-07-29T07:19:43;18.70;99.90
45837;DHT22;31548;51.420;-0.040;2023-07-29T07:22:11;18.80;99.90
45837;DHT22;31548;51.420;-0.040;2023-07-29T07:24:38;18.80;99.90
45837;DHT22;31548;51.420;-0.040;2023-07-29T07:27:06;18.80;99.90
45837;DHT22;31548;51.420;-0.040;2023-07-29T07:29:33;18.80;99.90
45837;DHT22;31548;51.420;-0.040;2023-07-29T07:32:01;18.90;99.90
45837;DHT22;31548;51.420;-0.040;2023-07-29T07:34:28;18.90;99.90
45837;DHT22;31548;51.420;-0.040;2023-07-29T07:36:56;18.90;99.90
45837;DHT22;31548;51.420;-0.040;2023-07-29T07:39:23;18.80;99.90
45837;DHT22;31548;51.420;-0.040;2023-07-29T07:41:50;18.80;99.90
45837;DHT22;31548;51.420;-0.040;2023-07-29T07:44:18;18.80;99.90
45837;DHT22;31548;51.420;-0.040;2023-07-29T07:46:46;18.90;99.90
45837;DHT22;31548;51.420;-0.040;2023-07-29T07:49:14;18.90;99.90
45837;DHT22;31548;51.420;-0.040;2023-07-29T07:51:43;18.90;99.90
45837;DHT22;31548;51.420;-0.040;2023-07-29T07:54:11;18.90;99.90
45837;DHT22;31548;51.420;-0.040;2023-07-29T07:56:38;18.90;99.90
45837;DHT22;31548;51.420;-0.040;2023-07-29T07:59:06;18.80;99.90
45837;DHT22;31548;51.420;-0.040;2023-07-29T08:01:35;18.70;99.90
45837;DHT22;31548;51.420;-0.040;2023-07-29T08:04:03;18.60;99.90
45837;DHT22;31548;51.420;-0.040;2023-07-29T08:06:31;18.50;99.90
45837;DHT22;31548;51.420;-0.040;2023-07-29T08:08:59;18.50;99.90
45837;DHT22;31548;51.420;-0.040;2023-07-29T08:11:26;18.40;99.90
45837;DHT22;31548;51.420;-0.040;2023-07-29T08:13:53;18.30;99.90
45837;DHT22;31548;51.420;-0.040;2023-07-29T08:16:21;18.20;99.90
45837;DHT22;31548;51.420;-0.040;2023-07-29T08:18:48;18.00;99.90
45837;DHT22;31548;51.420;-0.040;2023-07-29T08:21:16;18.00;99.90
45837;DHT22;31548;51.420;-0.040;2023-07-29T08:23:43;17.90;99.90
45837;DHT22;31548;51.420;-0.040;2023-07-29T08:26:11;17.80;99.90
45837;DHT22;31548;51.420;-0.040;2023-07-29T08:28:39;17.70;99.90
45837;DHT22;31548;51.420;-0.040;2023-07-29T08:31:07;17.60;99.90
45837;DHT22;31548;51.420;-0.040;2023-07-29T08:33:35;17.40;99.90
45837;DHT22;31548;51.420;-0.040;2023-07-29T08:36:03;17.40;99.90
45837;DHT22;31548;51.420;-0.040;2023-07-29T08:38:30;17.40;99.90
45837;DHT22;31548;51.420;-0.040;2023-07-29T08:41:14;17.30;99.90
45837;DHT22;31548;51.420;-0.040;2023-07-29T08:44:02;17.30;99.90
45837;DHT22;31548;51.420;-0.040;2023-07-29T08:46:32;17.30;99.90
45837;DHT22;31548;51.420;-0.040;2023-07-29T08:49:01;17.50;99.90
45837;DHT22;31548;51.420;-0.040;2023-07-29T08:51:29;17.60;99.90
45837;DHT22;31548;51.420;-0.040;2023-07-29T08:53:59;17.70;99.90
45837;DHT22;31548;51.420;-0.040;2023-07-29T08:56:26;17.90;99.90
45837;DHT22;31548;51.420;-0.040;2023-07-29T08:58:55;17.80;99.90
45837;DHT22;31548;51.420;-0.040;2023-07-29T09:01:22;17.80;99.90
45837;DHT22;31548;51.420;-0.040;2023-07-29T09:03:50;18.00;99.90
45837;DHT22;31548;51.420;-0.040;2023-07-29T09:06:18;18.10;99.90
45837;DHT22;31548;51.420;-0.040;2023-07-29T09:08:47;18.10;99.90
45837;DHT22;31548;51.420;-0.040;2023-07-29T09:11:15;18.10;99.90
45837;DHT22;31548;51.420;-0.040;2023-07-29T09:13:44;18.20;99.90
45837;DHT22;31548;51.420;-0.040;2023-07-29T09:16:11;18.40;99.90
45837;DHT22;31548;51.420;-0.040;2023-07-29T09:18:39;18.30;99.90
45837;DHT22;31548;51.420;-0.040;2023-07-29T09:21:06;18.40;99.90
45837;DHT22;31548;51.420;-0.040;2023-07-29T09:23:41;18.40;99.90
45837;DHT22;31548;51.420;-0.040;2023-07-29T09:26:09;18.50;99.90
45837;DHT22;31548;51.420;-0.040;2023-07-29T09:28:38;18.60;99.90
45837;DHT22;31548;51.420;-0.040;2023-07-29T09:31:06;18.70;99.90
45837;DHT22;31548;51.420;-0.040;2023-07-29T09:33:35;18.80;99.90
45837;DHT22;31548;51.420;-0.040;2023-07-29T09:36:13;18.70;99.90
45837;DHT22;31548;51.420;-0.040;2023-07-29T09:38:41;18.80;99.90
45837;DHT22;31548;51.420;-0.040;2023-07-29T09:41:12;18.80;99.90
45837;DHT22;31548;51.420;-0.040;2023-07-29T09:43:41;18.90;99.90
45837;DHT22;31548;51.420;-0.040;2023-07-29T09:46:08;19.00;99.90
45837;DHT22;31548;51.420;-0.040;2023-07-29T09:48:37;19.20;99.90
45837;DHT22;31548;51.420;-0.040;2023-07-29T09:51:15;19.30;99.90
45837;DHT22;31548;51.420;-0.040;2023-07-29T09:53:43;19.20;99.90
45837;DHT22;31548;51.420;-0.040;2023-07-29T09:56:14;19.20;99.90
45837;DHT22;31548;51.420;-0.040;2023-07-29T09:58:45;19.10;99.90
45837;DHT22;31548;51.420;-0.040;2023-07-29T10:01:13;19.10;99.90
45837;DHT22;31548;51.420;-0.040;2023-07-29T10:03:42;19.20;99.90
45837;DHT22;31548;51.420;-0.040;2023-07-29T10:06:11;19.40;99.90
45837;DHT22;31548;51.420;-0.040;2023-07-29T10:08:39;19.50;99.90
45837;DHT22;31548;51.420;-0.040;2023-07-29T10:11:09;19.50;99.90
45837;DHT22;31548;51.420;-0.040;2023-07-29T10:13:37;19.70;99.90
45837;DHT22;31548;51.420;-0.040;2023-07-29T10:16:05;19.80;99.90
45837;DHT22;31548;51.420;-0.040;2023-07-29T10:18:33;19.80;99.90
45837;DHT22;31548;51.420;-0.040;2023-07-29T10:21:02;20.00;99.90
45837;DHT22;31548;51.420;-0.040;2023-07-29T10:23:36;20.20;99.90
45837;DHT22;31548;51.420;-0.040;2023-07-29T10:26:06;20.40;99.90
45837;DHT22;31548;51.420;-0.040;2023-07-29T10:28:40;20.30;99.90
45837;DHT22;31548;51.420;-0.040;2023-07-29T10:31:09;20.40;99.90
45837;DHT22;31548;51.420;-0.040;2023-07-29T10:33:37;20.40;99.90
45837;DHT22;31548;51.420;-0.040;2023-07-29T10:36:05;20.60;99.90
45837;DHT22;31548;51.420;-0.040;2023-07-29T10:38:32;20.70;99.90
45837;DHT22;31548;51.420;-0.040;2023-07-29T10:41:00;20.70;99.90
45837;DHT22;31548;51.420;-0.040;2023-07-29T10:43:37;20.60;99.90
45837;DHT22;31548;51.420;-0.040;2023-07-29T10:46:23;20.60;99.90
45837;DHT22;31548;51.420;-0.040;2023-07-29T10:51:30;21.10;99.90
45837;DHT22;31548;51.420;-0.040;2023-07-29T10:54:13;20.90;99.90
45837;DHT22;31548;51.420;-0.040;2023-07-29T10:56:44;20.90;99.90
45837;DHT22;31548;51.420;-0.040;2023-07-29T11:01:58;21.50;99.90
45837;DHT22;31548;51.420;-0.040;2023-07-29T11:04:29;21.60;99.90
45837;DHT22;31548;51.420;-0.040;2023-07-29T11:09:55;21.50;99.90
45837;DHT22;31548;51.420;-0.040;2023-07-29T11:12:49;21.70;99.90
45837;DHT22;31548;51.420;-0.040;2023-07-29T11:15:27;21.80;99.90
45837;DHT22;31548;51.420;-0.040;2023-07-29T11:17:57;21.90;99.90
45837;DHT22;31548;51.420;-0.040;2023-07-29T11:20:29;22.00;99.90
45837;DHT22;31548;51.420;-0.040;2023-07-29T11:22:59;22.20;99.90
45837;DHT22;31548;51.420;-0.040;2023-07-29T11:25:27;22.30;99.90
45837;DHT22;31548;51.420;-0.040;2023-07-29T11:27:56;22.30;99.90
45837;DHT22;31548;51.420;-0.040;2023-07-29T11:30:24;22.30;99.90
45837;DHT22;31548;51.420;-0.040;2023-07-29T11:32:57;22.30;99.90
45837;DHT22;31548;51.420;-0.040;2023-07-29T11:35:26;22.20;99.90
45837;DHT22;31548;51.420;-0.040;2023-07-29T11:37:54;22.20;99.90
45837;DHT22;31548;51.420;-0.040;2023-07-29T11:40:24;22.00;99.90
45837;DHT22;31548;51.420;-0.040;2023-07-29T11:42:52;21.70;99.90
45837;DHT22;31548;51.420;-0.040;2023-07-29T11:45:21;21.60;99.90
45837;DHT22;31548;51.420;-0.040;2023-07-29T11:48:02;21.40;99.90
45837;DHT22;31548;51.420;-0.040;2023-07-29T11:50:29;21.10;99.90
45837;DHT22;31548;51.420;-0.040;2023-07-29T11:52:58;20.80;99.90
45837;DHT22;31548;51.420;-0.040;2023-07-29T11:55:25;20.60;99.90
45837;DHT22;31548;51.420;-0.040;2023-07-29T11:57:53;20.60;99.90
45837;DHT22;31548;51.420;-0.040;2023-07-29T12:00:21;20.70;99.90
45837;DHT22;31548;51.420;-0.040;2023-07-29T12:02:49;20.70;99.90
45837;DHT22;31548;51.420;-0.040;2023-07-29T12:05:18;20.70;99.90
45837;DHT22;31548;51.420;-0.040;2023-07-29T12:07:46;20.90;99.90
45837;DHT22;31548;51.420;-0.040;2023-07-29T12:10:14;21.10;99.90
45837;DHT22;31548;51.420;-0.040;2023-07-29T12:12:48;21.30;99.90
45837;DHT22;31548;51.420;-0.040;2023-07-29T12:15:26;21.40;99.90
45837;DHT22;31548;51.420;-0.040;2023-07-29T12:17:58;21.60;99.90
45837;DHT22;31548;51.420;-0.040;2023-07-29T12:20:27;21.70;99.90
45837;DHT22;31548;51.420;-0.040;2023-07-29T12:22:57;21.60;99.90
45837;DHT22;31548;51.420;-0.040;2023-07-29T12:25:26;21.50;99.90
45837;DHT22;31548;51.420;-0.040;2023-07-29T12:27:54;21.80;99.90
45837;DHT22;31548;51.420;-0.040;2023-07-29T12:30:22;21.70;99.90
45837;DHT22;31548;51.420;-0.040;2023-07-29T12:32:50;21.90;99.90
45837;DHT22;31548;51.420;-0.040;2023-07-29T12:35:17;22.10;99.90
45837;DHT22;31548;51.420;-0.040;2023-07-29T12:37:45;22.10;99.90
45837;DHT22;31548;51.420;-0.040;2023-07-29T12:40:24;22.40;99.90
45837;DHT22;31548;51.420;-0.040;2023-07-29T12:42:53;22.70;99.90
45837;DHT22;31548;51.420;-0.040;2023-07-29T12:45:20;22.80;99.90
45837;DHT22;31548;51.420;-0.040;2023-07-29T12:47:55;22.80;99.90
45837;DHT22;31548;51.420;-0.040;2023-07-29T12:50:23;22.50;99.90
45837;DHT22;31548;51.420;-0.040;2023-07-29T12:52:50;22.50;99.90
45837;DHT22;31548;51.420;-0.040;2023-07-29T12:55:17;22.30;99.90
45837;DHT22;31548;51.420;-0.040;2023-07-29T12:57:49;22.00;99.90
45837;DHT22;31548;51.420;-0.040;2023-07-29T13:00:17;21.90;99.90
45837;DHT22;31548;51.420;-0.040;2023-07-29T13:02:44;21.90;99.90
45837;DHT22;31548;51.420;-0.040;2023-07-29T13:05:12;22.00;99.90
45837;DHT22;31548;51.420;-0.040;2023-07-29T13:07:40;22.10;99.90
45837;DHT22;31548;51.420;-0.040;2023-07-29T13:10:09;22.10;99.90
45837;DHT22;31548;51.420;-0.040;2023-07-29T13:12:36;22.10;99.90
45837;DHT22;31548;51.420;-0.040;2023-07-29T13:15:04;22.20;99.90
45837;DHT22;31548;51.420;-0.040;2023-07-29T13:17:33;22.60;99.90
45837;DHT22;31548;51.420;-0.040;2023-07-29T13:20:00;22.90;99.90
45837;DHT22;31548;51.420;-0.040;2023-07-29T13:22:27;23.10;99.90
45837;DHT22;31548;51.420;-0.040;2023-07-29T13:24:55;23.10;99.90
45837;DHT22;31548;51.420;-0.040;2023-07-29T13:27:22;23.30;99.90
45837;DHT22;31548;51.420;-0.040;2023-07-29T13:29:51;23.50;99.90
45837;DHT22;31548;51.420;-0.040;2023-07-29T13:32:19;23.90;99.90
45837;DHT22;31548;51.420;-0.040;2023-07-29T13:34:46;23.90;99.90
45837;DHT22;31548;51.420;-0.040;2023-07-29T13:37:14;24.00;99.90
45837;DHT22;31548;51.420;-0.040;2023-07-29T13:39:41;23.70;99.90
45837;DHT22;31548;51.420;-0.040;2023-07-29T13:42:09;24.00;99.90
45837;DHT22;31548;51.420;-0.040;2023-07-29T13:44:36;24.10;99.90
45837;DHT22;31548;51.420;-0.040;2023-07-29T13:47:03;24.30;99.90
45837;DHT22;31548;51.420;-0.040;2023-07-29T13:49:31;24.20;99.90
45837;DHT22;31548;51.420;-0.040;2023-07-29T13:51:59;24.30;99.90
45837;DHT22;31548;51.420;-0.040;2023-07-29T13:54:26;23.70;99.90
45837;DHT22;31548;51.420;-0.040;2023-07-29T13:56:56;23.80;99.90
45837;DHT22;31548;51.420;-0.040;2023-07-29T13:59:23;24.30;99.90
45837;DHT22;31548;51.420;-0.040;2023-07-29T14:01:50;24.50;99.90
45837;DHT22;31548;51.420;-0.040;2023-07-29T14:04:18;24.60;99.90
45837;DHT22;31548;51.420;-0.040;2023-07-29T14:06:45;24.50;99.90
45837;DHT22;31548;51.420;-0.040;2023-07-29T14:09:18;24.50;99.90
45837;DHT22;31548;51.420;-0.040;2023-07-29T14:11:45;24.40;99.90
45837;DHT22;31548;51.420;-0.040;2023-07-29T14:14:12;24.80;99.00
45837;DHT22;31548;51.420;-0.040;2023-07-29T14:16:40;25.20;98.50
45837;DHT22;31548;51.420;-0.040;2023-07-29T14:19:07;24.90;99.90
45837;DHT22;31548;51.420;-0.040;2023-07-29T14:21:34;24.60;98.20
45837;DHT22;31548;51.420;-0.040;2023-07-29T14:24:02;24.50;97.80
45837;DHT22;31548;51.420;-0.040;2023-07-29T14:26:29;24.20;98.90
45837;DHT22;31548;51.420;-0.040;2023-07-29T14:28:56;23.90;98.10
45837;DHT22;31548;51.420;-0.040;2023-07-29T14:31:24;23.80;98.00
45837;DHT22;31548;51.420;-0.040;2023-07-29T14:33:51;23.70;98.80
45837;DHT22;31548;51.420;-0.040;2023-07-29T14:36:19;24.40;98.10
45837;DHT22;31548;51.420;-0.040;2023-07-29T14:38:46;24.40;98.20
45837;DHT22;31548;51.420;-0.040;2023-07-29T14:41:13;24.30;98.00
45837;DHT22;31548;51.420;-0.040;2023-07-29T14:43:41;24.20;98.20
45837;DHT22;31548;51.420;-0.040;2023-07-29T14:46:08;24.10;97.60
45837;DHT22;31548;51.420;-0.040;2023-07-29T14:48:35;23.90;99.50
45837;DHT22;31548;51.420;-0.040;2023-07-29T14:51:03;23.80;98.20
45837;DHT22;31548;51.420;-0.040;2023-07-29T14:53:30;23.60;98.20
45837;DHT22;31548;51.420;-0.040;2023-07-29T14:55:57;23.40;97.80
45837;DHT22;31548;51.420;-0.040;2023-07-29T14:58:25;23.30;98.20
45837;DHT22;31548;51.420;-0.040;2023-07-29T15:00:52;23.10;98.60
45837;DHT22;31548;51.420;-0.040;2023-07-29T15:03:20;22.90;98.90
45837;DHT22;31548;51.420;-0.040;2023-07-29T15:05:47;22.90;99.20
45837;DHT22;31548;51.420;-0.040;2023-07-29T15:08:15;22.80;99.40
45837;DHT22;31548;51.420;-0.040;2023-07-29T15:10:46;22.80;99.90
45837;DHT22;31548;51.420;-0.040;2023-07-29T15:13:14;22.90;99.90
45837;DHT22;31548;51.420;-0.040;2023-07-29T15:15:42;22.90;99.90
45837;DHT22;31548;51.420;-0.040;2023-07-29T15:18:10;22.90;99.90
45837;DHT22;31548;51.420;-0.040;2023-07-29T15:20:37;23.20;99.90
45837;DHT22;31548;51.420;-0.040;2023-07-29T15:23:05;23.70;99.90
45837;DHT22;31548;51.420;-0.040;2023-07-29T15:25:32;24.10;99.60
45837;DHT22;31548;51.420;-0.040;2023-07-29T15:27:59;24.60;99.20
45837;DHT22;31548;51.420;-0.040;2023-07-29T15:30:27;25.10;98.90
45837;DHT22;31548;51.420;-0.040;2023-07-29T15:32:54;25.10;98.60